Nissho Maru No7 — JH3472 — position and weather

sailwx.info

Track history (hours):
 
Tides and Currents Weather Stations Pressure Air Temp Water Temp Dewpoint Dewpoint Depression Visibility Wind Speed Wind Dir Waves Ship Positions

Nissho Maru No7

Last reported at 2015-Sep-03 04:19 UTC. Time now 2015-Sep-03 10:53 UTC.
Position N 34°35' E 135°27'.

Length 71 m; draft 4.8 m.

MMSI: 431200355.

Date/timePositionNaut miles runAvg speedWind from/ knotsBaromVisibWave heightAir tempDewpointWater temp
2015-Sep-03 04:19N 34°35' E 135°27'6 7.7
2015-Sep-03 03:33N 34°35' E 135°20'2711.7
2015-Sep-03 01:14N 34°15' E 134°59'912.6
2015-Sep-03 00:33N 34°06' E 135°01'177 4.6
2015-Sep-01 10:28N 34°35' E 138°32'5511.0
2015-Sep-01 05:31N 35°01' E 139°30'1212.8
2015-Sep-01 04:33N 35°08' E 139°43'1110.6
2015-Sep-01 03:33N 35°19' E 139°43'7 7.1
2015-Sep-01 02:33N 35°24' E 139°48'5 4.8
2015-Sep-01 01:31N 35°22' E 139°54'0 0.0
2015-Sep-01 00:31N 35°22' E 139°54'0 0.0
2015-Aug-31 23:28N 35°22' E 139°54'0 0.0
2015-Aug-31 22:28N 35°22' E 139°54'0 0.0
2015-Aug-31 21:31N 35°22' E 139°54'0 0.0
2015-Aug-31 20:31N 35°22' E 139°54'0 0.0
2015-Aug-31 19:31N 35°22' E 139°54'0 0.0
2015-Aug-31 18:31N 35°22' E 139°54'4 3.7
2015-Aug-31 17:33N 35°24' E 139°50'1111.0
2015-Aug-31 16:33N 35°34' E 139°55'7 6.6
2015-Aug-31 15:33N 35°40' E 139°57'0 0.0
2015-Aug-31 14:07N 35°40' E 139°57'0 0.0
2015-Aug-31 13:13N 35°40' E 139°57'0 0.0
2015-Aug-31 12:25N 35°40' E 139°57'0 0.0
2015-Aug-31 11:25N 35°40' E 139°57'0 0.0
2015-Aug-31 10:31N 35°40' E 139°57'1 0.6
2015-Aug-31 09:33N 35°40' E 139°57'2 1.7
2015-Aug-31 08:33N 35°41' E 139°59'0 0.0
2015-Aug-31 07:33N 35°41' E 139°59'0 0.0
2015-Aug-31 06:32N 35°41' E 139°59'0 0.0
2015-Aug-31 05:33N 35°41' E 139°59'0 0.0
2015-Aug-31 04:33N 35°41' E 139°59'0 0.0
2015-Aug-31 03:33N 35°41' E 139°59'0 0.0
2015-Aug-31 02:33N 35°41' E 139°59'0 0.0
2015-Aug-31 01:33N 35°41' E 139°59'4 4.4
2015-Aug-31 00:33N 35°37' E 139°58'0 0.0
2015-Aug-30 23:10N 35°37' E 139°58'0 0.0
2015-Aug-30 22:28N 35°37' E 139°58'0 0.0
2015-Aug-30 21:10N 35°37' E 139°58'0 0.0
2015-Aug-30 20:04N 35°37' E 139°58'0 0.0
2015-Aug-30 19:10N 35°37' E 139°58'0 0.0
2015-Aug-30 18:28N 35°37' E 139°58'0 0.0
2015-Aug-30 17:28N 35°37' E 139°58'0 0.0
2015-Aug-30 16:04N 35°37' E 139°58'0 0.0
2015-Aug-30 15:28N 35°37' E 139°58'0 0.0
2015-Aug-30 14:22N 35°37' E 139°58'0 0.0
2015-Aug-30 13:28N 35°37' E 139°58'0 0.0
2015-Aug-30 12:16N 35°37' E 139°58'0 0.0
2015-Aug-30 10:28N 35°37' E 139°58'0 0.0
2015-Aug-30 09:10N 35°37' E 139°58'0 0.0
2015-Aug-30 08:28N 35°37' E 139°58'0 0.0
2015-Aug-30 07:22N 35°37' E 139°58'0 0.0
2015-Aug-30 06:28N 35°37' E 139°58'0 0.0
2015-Aug-30 05:28N 35°37' E 139°58'0 0.0
2015-Aug-30 04:22N 35°37' E 139°58'0 0.0
2015-Aug-30 03:16N 35°37' E 139°58'0 0.0
2015-Aug-30 02:22N 35°37' E 139°58'0 0.0
2015-Aug-30 01:28N 35°37' E 139°58'0 0.0
2015-Aug-30 00:05N 35°37' E 139°58'0 0.0
2015-Aug-29 23:05N 35°37' E 139°58'0 0.0
2015-Aug-29 22:29N 35°37' E 139°58'0 0.0
2015-Aug-29 21:29N 35°37' E 139°58'0 0.0
2015-Aug-29 20:23N 35°37' E 139°58'0 0.0
2015-Aug-29 19:29N 35°37' E 139°58'4 4.0
2015-Aug-29 18:33N 35°34' E 139°55'1111.3
2015-Aug-29 17:33N 35°25' E 139°47'1110.6
2015-Aug-29 16:33N 35°14' E 139°47'245 8.7
2015-Aug-28 12:31N 34°07' E 135°00'29 0.6
2015-Aug-26 08:33N 34°34' E 134°50'1312.9
2015-Aug-26 07:33N 34°35' E 135°06'1111.1
2015-Aug-26 06:33N 34°38' E 135°19'6 6.0
2015-Aug-26 05:33N 34°42' E 135°24'0 0.0
2015-Aug-26 04:24N 34°42' E 135°24'0 0.0
2015-Aug-26 03:30N 34°42' E 135°24'0 0.0
2015-Aug-26 02:30N 34°42' E 135°24'0 0.0
2015-Aug-24 23:30N 34°42' E 135°24'0 0.0
2015-Aug-24 22:30N 34°42' E 135°24'0 0.0
2015-Aug-24 21:24N 34°42' E 135°24'0 0.0
2015-Aug-24 20:30N 34°42' E 135°24'0 0.0
2015-Aug-24 19:30N 34°42' E 135°24'0 0.0
2015-Aug-24 18:24N 34°42' E 135°24'0 0.0
2015-Aug-24 17:30N 34°42' E 135°24'0 0.0
2015-Aug-24 16:30N 34°42' E 135°24'0 0.0
2015-Aug-24 15:30N 34°42' E 135°24'0 0.0
2015-Aug-24 14:30N 34°42' E 135°24'0 0.0
2015-Aug-24 13:30N 34°42' E 135°24'0 0.0
2015-Aug-24 12:24N 34°42' E 135°24'0 0.0
2015-Aug-24 11:30N 34°42' E 135°24'0 0.0
2015-Aug-24 10:30N 34°42' E 135°24'0 0.0
2015-Aug-24 08:22N 34°42' E 135°24'0 0.0
2015-Aug-24 07:28N 34°42' E 135°24'0 0.0
2015-Aug-24 06:22N 34°42' E 135°24'0 0.0
2015-Aug-24 05:22N 34°42' E 135°24'0 0.0
2015-Aug-24 04:22N 34°42' E 135°24'  
Track history (hours):
 
Tides and Currents Weather Stations Pressure Air Temp Water Temp Dewpoint Dewpoint Depression Visibility Wind Speed Wind Dir Waves Ship Positions

Nissho Maru No7

Last reported at 2015-Sep-03 04:19 UTC. Time now 2015-Sep-03 10:53 UTC.
Position N 34°35' E 135°27'.

Length 71 m; draft 4.8 m.

MMSI: 431200355.

Date/timePositionNaut miles runAvg speedWind from/ knotsBaromVisibWave heightAir tempDewpointWater temp
2015-Sep-03 04:19N 34°35' E 135°27'6 7.7
2015-Sep-03 03:33N 34°35' E 135°20'2711.7
2015-Sep-03 01:14N 34°15' E 134°59'912.6
2015-Sep-03 00:33N 34°06' E 135°01'177 4.6
2015-Sep-01 10:28N 34°35' E 138°32'5511.0
2015-Sep-01 05:31N 35°01' E 139°30'1212.8
2015-Sep-01 04:33N 35°08' E 139°43'1110.6
2015-Sep-01 03:33N 35°19' E 139°43'7 7.1
2015-Sep-01 02:33N 35°24' E 139°48'5 4.8
2015-Sep-01 01:31N 35°22' E 139°54'0 0.0
2015-Sep-01 00:31N 35°22' E 139°54'0 0.0
2015-Aug-31 23:28N 35°22' E 139°54'0 0.0
2015-Aug-31 22:28N 35°22' E 139°54'0 0.0
2015-Aug-31 21:31N 35°22' E 139°54'0 0.0
2015-Aug-31 20:31N 35°22' E 139°54'0 0.0
2015-Aug-31 19:31N 35°22' E 139°54'0 0.0
2015-Aug-31 18:31N 35°22' E 139°54'4 3.7
2015-Aug-31 17:33N 35°24' E 139°50'1111.0
2015-Aug-31 16:33N 35°34' E 139°55'7 6.6
2015-Aug-31 15:33N 35°40' E 139°57'0 0.0
2015-Aug-31 14:07N 35°40' E 139°57'0 0.0
2015-Aug-31 13:13N 35°40' E 139°57'0 0.0
2015-Aug-31 12:25N 35°40' E 139°57'0 0.0
2015-Aug-31 11:25N 35°40' E 139°57'0 0.0
2015-Aug-31 10:31N 35°40' E 139°57'1 0.6
2015-Aug-31 09:33N 35°40' E 139°57'2 1.7
2015-Aug-31 08:33N 35°41' E 139°59'0 0.0
2015-Aug-31 07:33N 35°41' E 139°59'0 0.0
2015-Aug-31 06:32N 35°41' E 139°59'0 0.0
2015-Aug-31 05:33N 35°41' E 139°59'0 0.0
2015-Aug-31 04:33N 35°41' E 139°59'0 0.0
2015-Aug-31 03:33N 35°41' E 139°59'0 0.0
2015-Aug-31 02:33N 35°41' E 139°59'0 0.0
2015-Aug-31 01:33N 35°41' E 139°59'4 4.4
2015-Aug-31 00:33N 35°37' E 139°58'0 0.0
2015-Aug-30 23:10N 35°37' E 139°58'0 0.0
2015-Aug-30 22:28N 35°37' E 139°58'0 0.0
2015-Aug-30 21:10N 35°37' E 139°58'0 0.0
2015-Aug-30 20:04N 35°37' E 139°58'0 0.0
2015-Aug-30 19:10N 35°37' E 139°58'0 0.0
2015-Aug-30 18:28N 35°37' E 139°58'0 0.0
2015-Aug-30 17:28N 35°37' E 139°58'0 0.0
2015-Aug-30 16:04N 35°37' E 139°58'0 0.0
2015-Aug-30 15:28N 35°37' E 139°58'0 0.0
2015-Aug-30 14:22N 35°37' E 139°58'0 0.0
2015-Aug-30 13:28N 35°37' E 139°58'0 0.0
2015-Aug-30 12:16N 35°37' E 139°58'0 0.0
2015-Aug-30 10:28N 35°37' E 139°58'0 0.0
2015-Aug-30 09:10N 35°37' E 139°58'0 0.0
2015-Aug-30 08:28N 35°37' E 139°58'0 0.0
2015-Aug-30 07:22N 35°37' E 139°58'0 0.0
2015-Aug-30 06:28N 35°37' E 139°58'0 0.0
2015-Aug-30 05:28N 35°37' E 139°58'0 0.0
2015-Aug-30 04:22N 35°37' E 139°58'0 0.0
2015-Aug-30 03:16N 35°37' E 139°58'0 0.0
2015-Aug-30 02:22N 35°37' E 139°58'0 0.0
2015-Aug-30 01:28N 35°37' E 139°58'0 0.0
2015-Aug-30 00:05N 35°37' E 139°58'0 0.0
2015-Aug-29 23:05N 35°37' E 139°58'0 0.0
2015-Aug-29 22:29N 35°37' E 139°58'0 0.0
2015-Aug-29 21:29N 35°37' E 139°58'0 0.0
2015-Aug-29 20:23N 35°37' E 139°58'0 0.0
2015-Aug-29 19:29N 35°37' E 139°58'4 4.0
2015-Aug-29 18:33N 35°34' E 139°55'1111.3
2015-Aug-29 17:33N 35°25' E 139°47'1110.6
2015-Aug-29 16:33N 35°14' E 139°47'245 8.7
2015-Aug-28 12:31N 34°07' E 135°00'29 0.6
2015-Aug-26 08:33N 34°34' E 134°50'1312.9
2015-Aug-26 07:33N 34°35' E 135°06'1111.1
2015-Aug-26 06:33N 34°38' E 135°19'6 6.0
2015-Aug-26 05:33N 34°42' E 135°24'0 0.0
2015-Aug-26 04:24N 34°42' E 135°24'0 0.0
2015-Aug-26 03:30N 34°42' E 135°24'0 0.0
2015-Aug-26 02:30N 34°42' E 135°24'0 0.0
2015-Aug-24 23:30N 34°42' E 135°24'0 0.0
2015-Aug-24 22:30N 34°42' E 135°24'0 0.0
2015-Aug-24 21:24N 34°42' E 135°24'0 0.0
2015-Aug-24 20:30N 34°42' E 135°24'0 0.0
2015-Aug-24 19:30N 34°42' E 135°24'0 0.0
2015-Aug-24 18:24N 34°42' E 135°24'0 0.0
2015-Aug-24 17:30N 34°42' E 135°24'0 0.0
2015-Aug-24 16:30N 34°42' E 135°24'0 0.0
2015-Aug-24 15:30N 34°42' E 135°24'0 0.0
2015-Aug-24 14:30N 34°42' E 135°24'0 0.0
2015-Aug-24 13:30N 34°42' E 135°24'0 0.0
2015-Aug-24 12:24N 34°42' E 135°24'0 0.0
2015-Aug-24 11:30N 34°42' E 135°24'0 0.0
2015-Aug-24 10:30N 34°42' E 135°24'0 0.0
2015-Aug-24 08:22N 34°42' E 135°24'0 0.0
2015-Aug-24 07:28N 34°42' E 135°24'0 0.0
2015-Aug-24 06:22N 34°42' E 135°24'0 0.0
2015-Aug-24 05:22N 34°42' E 135°24'0 0.0
2015-Aug-24 04:22N 34°42' E 135°24'  

Dump ship's entire track history